Terminal Aerodrome Forecast
Issued by NWS Greer, SC

Home | Current Version | Previous Version | Text Only | Print | Product List | Glossary On
Versions: 1 2 3 4 5 6 7 8 9 10 11 12 13 14 15 16 17 18 19 20 21
000
FTUS42 KGSP 291741
TAFGSP
TAF
KGSP 291741Z 2918/3018 16004KT P6SM VCTS BKN035CB
      TEMPO 2918/2921 VRB10G20KT 3SM TSRA OVC025CB
     FM292300 00000KT P6SM BKN045
     FM300400 00000KT P6SM SCT250
     FM300900 00000KT 5SM BR SCT060
     FM301200 00000KT P6SM SCT045=

USA.gov is the U.S. government's official web portal to all federal, state and local government web resources and services.